sensor_id;sensor_type;location;lat;lon;timestamp;P1;durP1;ratioP1;P2;durP2;ratioP2
71048;SDS011;58704;53.358;-6.238;2024-01-30T09:40:31;10.53;;;2.83;;
71048;SDS011;58704;53.358;-6.238;2024-01-30T09:42:58;12.57;;;3.40;;
71048;SDS011;58704;53.358;-6.238;2024-01-30T14:53:09;2.13;;;1.20;;
71048;SDS011;58704;53.358;-6.238;2024-01-30T14:55:34;5.93;;;1.27;;
71048;SDS011;58704;53.358;-6.238;2024-01-30T14:57:59;8.73;;;1.70;;
71048;SDS011;58704;53.358;-6.238;2024-01-30T15:00:25;8.00;;;1.43;;
71048;SDS011;58704;53.358;-6.238;2024-01-30T15:02:53;5.68;;;1.90;;
71048;SDS011;58704;53.358;-6.238;2024-01-30T15:05:18;5.80;;;1.43;;
71048;SDS011;58704;53.358;-6.238;2024-01-30T15:07:44;10.10;;;1.67;;
71048;SDS011;58704;53.358;-6.238;2024-01-30T15:10:09;4.90;;;1.20;;
71048;SDS011;58704;53.358;-6.238;2024-01-30T15:12:37;4.13;;;1.07;;
71048;SDS011;58704;53.358;-6.238;2024-01-30T15:15:03;8.30;;;1.40;;
71048;SDS011;58704;53.358;-6.238;2024-01-30T15:17:28;4.30;;;1.17;;
71048;SDS011;58704;53.358;-6.238;2024-01-30T15:19:53;9.47;;;1.87;;
71048;SDS011;58704;53.358;-6.238;2024-01-30T15:22:19;10.32;;;1.42;;
71048;SDS011;58704;53.358;-6.238;2024-01-30T15:24:44;5.20;;;1.80;;
71048;SDS011;58704;53.358;-6.238;2024-01-30T15:27:11;9.93;;;1.40;;
71048;SDS011;58704;53.358;-6.238;2024-01-30T15:29:36;5.70;;;1.27;;
71048;SDS011;58704;53.358;-6.238;2024-01-30T15:32:02;6.07;;;1.40;;
71048;SDS011;58704;53.358;-6.238;2024-01-30T15:34:27;7.83;;;1.50;;
71048;SDS011;58704;53.358;-6.238;2024-01-30T15:36:53;15.43;;;2.00;;
71048;SDS011;58704;53.358;-6.238;2024-01-30T15:39:18;8.20;;;1.80;;
71048;SDS011;58704;53.358;-6.238;2024-01-30T15:41:44;5.43;;;1.37;;
71048;SDS011;58704;53.358;-6.238;2024-01-30T15:44:09;11.40;;;1.40;;
71048;SDS011;58704;53.358;-6.238;2024-01-30T15:46:35;8.20;;;1.65;;
71048;SDS011;58704;53.358;-6.238;2024-01-30T15:49:00;12.03;;;3.23;;
71048;SDS011;58704;53.358;-6.238;2024-01-30T15:51:26;7.80;;;2.00;;
71048;SDS011;58704;53.358;-6.238;2024-01-30T15:53:59;10.13;;;1.90;;
71048;SDS011;58704;53.358;-6.238;2024-01-30T15:56:24;9.13;;;1.80;;
71048;SDS011;58704;53.358;-6.238;2024-01-30T15:58:50;4.90;;;1.63;;
71048;SDS011;58704;53.358;-6.238;2024-01-30T16:01:17;7.55;;;1.90;;
71048;SDS011;58704;53.358;-6.238;2024-01-30T16:03:42;10.53;;;1.93;;
71048;SDS011;58704;53.358;-6.238;2024-01-30T16:06:11;5.28;;;1.55;;
71048;SDS011;58704;53.358;-6.238;2024-01-30T16:08:43;6.95;;;1.63;;
71048;SDS011;58704;53.358;-6.238;2024-01-30T16:11:08;5.73;;;1.60;;
71048;SDS011;58704;53.358;-6.238;2024-01-30T16:13:37;4.88;;;1.75;;
71048;SDS011;58704;53.358;-6.238;2024-01-30T16:16:06;4.43;;;1.43;;
71048;SDS011;58704;53.358;-6.238;2024-01-30T16:18:31;4.75;;;1.75;;
71048;SDS011;58704;53.358;-6.238;2024-01-30T16:20:57;5.88;;;2.13;;
71048;SDS011;58704;53.358;-6.238;2024-01-30T16:23:22;4.63;;;1.40;;
71048;SDS011;58704;53.358;-6.238;2024-01-30T16:25:48;6.93;;;1.90;;
71048;SDS011;58704;53.358;-6.238;2024-01-30T16:28:13;5.00;;;2.57;;
71048;SDS011;58704;53.358;-6.238;2024-01-30T16:30:39;8.07;;;2.27;;
71048;SDS011;58704;53.358;-6.238;2024-01-30T16:33:16;3.67;;;1.97;;
71048;SDS011;58704;53.358;-6.238;2024-01-30T16:35:43;5.68;;;1.70;;
71048;SDS011;58704;53.358;-6.238;2024-01-30T16:38:11;7.20;;;2.20;;
71048;SDS011;58704;53.358;-6.238;2024-01-30T16:40:37;6.05;;;2.10;;
71048;SDS011;58704;53.358;-6.238;2024-01-30T16:43:02;6.23;;;2.47;;
71048;SDS011;58704;53.358;-6.238;2024-01-30T16:45:28;7.40;;;2.17;;
71048;SDS011;58704;53.358;-6.238;2024-01-30T16:47:54;5.82;;;1.98;;
71048;SDS011;58704;53.358;-6.238;2024-01-30T16:50:20;5.07;;;2.58;;
71048;SDS011;58704;53.358;-6.238;2024-01-30T16:52:46;6.90;;;2.40;;
71048;SDS011;58704;53.358;-6.238;2024-01-30T16:55:11;8.60;;;3.07;;
71048;SDS011;58704;53.358;-6.238;2024-01-30T16:57:38;5.93;;;2.30;;
71048;SDS011;58704;53.358;-6.238;2024-01-30T17:00:03;3.60;;;2.07;;
71048;SDS011;58704;53.358;-6.238;2024-01-30T17:02:30;9.55;;;2.30;;
71048;SDS011;58704;53.358;-6.238;2024-01-30T17:04:56;7.80;;;2.33;;
71048;SDS011;58704;53.358;-6.238;2024-01-30T17:07:23;13.32;;;5.40;;
71048;SDS011;58704;53.358;-6.238;2024-01-30T17:09:49;15.80;;;5.03;;
71048;SDS011;58704;53.358;-6.238;2024-01-30T17:12:14;8.67;;;4.03;;
71048;SDS011;58704;53.358;-6.238;2024-01-30T17:14:40;9.05;;;3.50;;
71048;SDS011;58704;53.358;-6.238;2024-01-30T17:17:07;8.25;;;2.95;;
71048;SDS011;58704;53.358;-6.238;2024-01-30T17:19:34;6.55;;;3.15;;
71048;SDS011;58704;53.358;-6.238;2024-01-30T17:21:59;4.87;;;2.20;;
71048;SDS011;58704;53.358;-6.238;2024-01-30T17:24:38;7.32;;;2.50;;
71048;SDS011;58704;53.358;-6.238;2024-01-30T17:27:05;9.88;;;4.10;;
71048;SDS011;58704;53.358;-6.238;2024-01-30T17:29:30;14.00;;;3.93;;
71048;SDS011;58704;53.358;-6.238;2024-01-30T17:31:56;11.48;;;4.78;;
71048;SDS011;58704;53.358;-6.238;2024-01-30T19:43:43;10.77;;;5.03;;
71048;SDS011;58704;53.358;-6.238;2024-01-30T19:46:08;13.50;;;5.70;;
71048;SDS011;58704;53.358;-6.238;2024-01-30T19:48:35;8.47;;;4.73;;
71048;SDS011;58704;53.358;-6.238;2024-01-30T19:51:01;11.32;;;4.53;;
71048;SDS011;58704;53.358;-6.238;2024-01-30T19:53:26;13.53;;;5.20;;
71048;SDS011;58704;53.358;-6.238;2024-01-30T19:55:51;15.53;;;7.87;;
71048;SDS011;58704;53.358;-6.238;2024-01-30T19:58:16;13.20;;;4.93;;
71048;SDS011;58704;53.358;-6.238;2024-01-30T20:00:42;8.33;;;3.80;;
71048;SDS011;58704;53.358;-6.238;2024-01-30T20:03:07;12.67;;;4.47;;
71048;SDS011;58704;53.358;-6.238;2024-01-30T20:05:32;10.30;;;4.90;;
71048;SDS011;58704;53.358;-6.238;2024-01-30T20:07:58;8.70;;;3.63;;
71048;SDS011;58704;53.358;-6.238;2024-01-30T20:10:23;8.33;;;3.60;;
71048;SDS011;58704;53.358;-6.238;2024-01-30T20:12:48;7.43;;;3.40;;
71048;SDS011;58704;53.358;-6.238;2024-01-30T20:15:16;7.28;;;3.60;;
71048;SDS011;58704;53.358;-6.238;2024-01-30T20:17:42;4.75;;;2.80;;
71048;SDS011;58704;53.358;-6.238;2024-01-30T20:20:10;6.50;;;3.00;;
71048;SDS011;58704;53.358;-6.238;2024-01-30T20:22:36;7.22;;;3.70;;
71048;SDS011;58704;53.358;-6.238;2024-01-30T20:25:02;12.97;;;5.50;;
71048;SDS011;58704;53.358;-6.238;2024-01-30T20:27:27;12.10;;;4.65;;
71048;SDS011;58704;53.358;-6.238;2024-01-30T20:29:53;16.67;;;5.80;;
71048;SDS011;58704;53.358;-6.238;2024-01-30T20:32:19;9.48;;;4.57;;
71048;SDS011;58704;53.358;-6.238;2024-01-30T20:34:45;8.37;;;4.40;;
71048;SDS011;58704;53.358;-6.238;2024-01-30T20:37:10;7.90;;;4.50;;
71048;SDS011;58704;53.358;-6.238;2024-01-30T20:39:35;9.32;;;4.28;;
71048;SDS011;58704;53.358;-6.238;2024-01-30T20:42:01;7.27;;;3.50;;
71048;SDS011;58704;53.358;-6.238;2024-01-30T20:44:26;7.43;;;3.53;;
71048;SDS011;58704;53.358;-6.238;2024-01-30T20:46:52;9.87;;;3.80;;
71048;SDS011;58704;53.358;-6.238;2024-01-30T20:49:19;7.77;;;3.30;;
71048;SDS011;58704;53.358;-6.238;2024-01-30T20:51:45;12.55;;;3.13;;
71048;SDS011;58704;53.358;-6.238;2024-01-30T20:54:10;8.97;;;4.23;;
71048;SDS011;58704;53.358;-6.238;2024-01-30T20:56:37;11.55;;;4.60;;
71048;SDS011;58704;53.358;-6.238;2024-01-30T20:59:03;12.88;;;4.35;;
71048;SDS011;58704;53.358;-6.238;2024-01-30T21:01:29;7.00;;;3.90;;
71048;SDS011;58704;53.358;-6.238;2024-01-30T21:03:55;6.70;;;2.47;;
71048;SDS011;58704;53.358;-6.238;2024-01-30T21:06:20;6.13;;;2.77;;
71048;SDS011;58704;53.358;-6.238;2024-01-30T21:08:46;4.23;;;2.73;;
71048;SDS011;58704;53.358;-6.238;2024-01-30T21:11:11;7.77;;;3.13;;
71048;SDS011;58704;53.358;-6.238;2024-01-30T21:13:36;4.83;;;2.70;;
71048;SDS011;58704;53.358;-6.238;2024-01-30T21:16:02;7.77;;;2.30;;
71048;SDS011;58704;53.358;-6.238;2024-01-30T21:18:27;8.55;;;2.25;;
71048;SDS011;58704;53.358;-6.238;2024-01-30T21:20:53;6.33;;;2.10;;
71048;SDS011;58704;53.358;-6.238;2024-01-30T21:23:19;4.18;;;2.13;;
71048;SDS011;58704;53.358;-6.238;2024-01-30T21:25:45;11.20;;;2.50;;
71048;SDS011;58704;53.358;-6.238;2024-01-30T21:28:10;10.07;;;2.83;;
71048;SDS011;58704;53.358;-6.238;2024-01-30T21:30:36;4.35;;;1.60;;
71048;SDS011;58704;53.358;-6.238;2024-01-30T21:33:02;5.10;;;1.90;;
71048;SDS011;58704;53.358;-6.238;2024-01-30T21:35:27;6.40;;;1.97;;
71048;SDS011;58704;53.358;-6.238;2024-01-30T21:37:52;8.57;;;1.83;;
